Time;durP1;ratioP1;P1;durP2;ratioP2;P2;SDS_P1;SDS_P2;PMS_P1;PMS_P2;Temp;Humidity;BMP_temperature;BMP_pressure;BME280_temperature;BME280_humidity;BME280_pressure;Samples;Min_cycle;Max_cycle;Signal;HPM_P1;HPM_P2
2021/03/20 00:01:45;;;;;;;11.95;5.83;;;;;;;-2.19;69.11;99169.81;2265586;78;21135;-90
2021/03/20 00:04:46;;;;;;;26.77;10.58;;;;;;;-2.20;69.29;99169.87;2265421;79;21690;-90
2021/03/20 00:07:48;;;;;;;17.07;6.97;;;;;;;-2.18;69.80;99174.02;2265761;78;21165;-91
2021/03/20 00:10:50;;;;;;;13.30;6.30;;;;;;;-2.22;68.97;99171.24;2265499;78;21158;-92
2021/03/20 00:13:51;;;;;;;19.87;6.95;;;;;;;-2.23;68.72;99176.47;2265376;79;21665;-90
2021/03/20 00:16:53;;;;;;;20.68;8.70;;;;;;;-2.24;69.26;99179.49;2265254;78;21195;-90
2021/03/20 00:19:54;;;;;;;32.53;10.48;;;;;;;-2.23;69.67;99183.70;2265718;79;21297;-88
2021/03/20 00:22:56;;;;;;;9.90;5.53;;;;;;;-2.21;69.34;99184.90;2265749;78;21301;-89
2021/03/20 00:25:58;;;;;;;12.40;5.40;;;;;;;-2.28;68.25;99183.62;2265645;79;21273;-90
2021/03/20 00:29:00;;;;;;;18.70;7.08;;;;;;;-2.38;68.33;99187.98;2265495;79;21573;-91
2021/03/20 00:32:01;;;;;;;11.15;5.12;;;;;;;-2.41;68.74;99195.83;2265744;79;21288;-89
2021/03/20 00:35:03;;;;;;;11.15;5.53;;;;;;;-2.44;68.53;99195.19;2265690;78;21281;-90
2021/03/20 00:38:05;;;;;;;6.97;4.58;;;;;;;-2.49;68.76;99199.28;2265426;78;21158;-91
2021/03/20 00:41:07;;;;;;;8.70;4.67;;;;;;;-2.47;68.89;99197.91;2265937;78;21151;-91
2021/03/20 00:44:08;;;;;;;10.53;4.87;;;;;;;-2.49;68.55;99199.28;2266082;79;21313;-91
2021/03/20 00:47:10;;;;;;;7.55;3.62;;;;;;;-2.49;68.71;99201.84;2265414;78;21193;-90
2021/03/20 00:50:12;;;;;;;7.75;4.42;;;;;;;-2.45;68.70;99199.50;2265489;78;21135;-91
2021/03/20 00:53:14;;;;;;;5.55;4.47;;;;;;;-2.43;68.38;99207.09;2265397;78;21139;-91
2021/03/20 00:56:15;;;;;;;4.72;3.58;;;;;;;-2.41;68.58;99206.09;2265605;78;21706;-92
2021/03/20 00:59:17;;;;;;;4.75;3.70;;;;;;;-2.34;68.58;99213.00;2265645;78;21293;-89
2021/03/20 01:02:18;;;;;;;8.55;4.25;;;;;;;-2.33;68.59;99209.05;2265510;78;21284;-90
2021/03/20 01:05:20;;;;;;;6.00;3.47;;;;;;;-2.32;68.36;99205.58;2265613;78;21293;-91
2021/03/20 01:08:22;;;;;;;6.90;4.28;;;;;;;-2.33;68.23;99211.62;2265545;78;21265;-90
2021/03/20 01:11:24;;;;;;;8.58;3.83;;;;;;;-2.34;68.48;99209.97;2265888;78;21301;-91
2021/03/20 01:14:26;;;;;;;8.05;4.70;;;;;;;-2.32;68.25;99218.40;2265773;78;21274;-91
2021/03/20 01:17:27;;;;;;;7.08;4.22;;;;;;;-2.31;68.45;99210.25;2265695;78;21135;-92
2021/03/20 01:20:29;;;;;;;9.20;4.55;;;;;;;-2.31;68.22;99211.07;2265548;78;21146;-92
2021/03/20 01:23:30;;;;;;;7.83;4.87;;;;;;;-2.29;67.96;99212.27;2265790;78;21301;-86
2021/03/20 01:26:32;;;;;;;6.65;4.35;;;;;;;-2.33;67.92;99209.05;2265545;79;21108;-91
2021/03/20 01:29:34;;;;;;;5.35;3.90;;;;;;;-2.35;68.28;99208.78;2265660;78;21293;-91
2021/03/20 01:32:35;;;;;;;7.17;4.75;;;;;;;-2.32;67.63;99209.88;2265519;78;21163;-90
2021/03/20 01:35:37;;;;;;;8.98;4.72;;;;;;;-2.37;67.65;99207.59;2265226;78;21626;-90
2021/03/20 01:38:38;;;;;;;7.58;4.50;;;;;;;-2.40;67.79;99209.02;2265268;79;21687;-90
2021/03/20 01:41:40;;;;;;;7.10;4.50;;;;;;;-2.42;67.79;99205.72;2265386;78;21142;-91
2021/03/20 01:44:41;;;;;;;8.18;4.80;;;;;;;-2.50;67.72;99200.19;2265597;78;21123;-92
2021/03/20 01:47:43;;;;;;;6.67;4.25;;;;;;;-2.53;67.52;99204.68;2265709;78;21157;-90
2021/03/20 01:50:45;;;;;;;9.93;4.72;;;;;;;-2.62;66.80;99207.30;2266662;78;21281;-87
2021/03/20 01:53:46;;;;;;;5.80;4.10;;;;;;;-2.67;67.27;99213.94;2268894;79;21289;-88
2021/03/20 01:56:49;;;;;;;6.25;4.42;;;;;;;-2.74;66.91;99215.64;2269128;78;21115;-86
2021/03/20 01:59:51;;;;;;;7.35;3.87;;;;;;;-2.77;67.33;99216.64;2268678;79;21301;-89
2021/03/20 02:02:52;;;;;;;8.73;4.37;;;;;;;-2.79;67.61;99215.08;2265158;78;21126;-89
2021/03/20 02:05:54;;;;;;;9.00;4.03;;;;;;;-2.78;67.36;99219.30;2267892;78;21126;-85
2021/03/20 02:08:56;;;;;;;4.92;4.20;;;;;;;-2.78;67.33;99223.14;2268209;78;21242;-86
2021/03/20 02:11:57;;;;;;;5.75;4.22;;;;;;;-2.79;67.50;99223.59;2268096;79;21264;-85
2021/03/20 02:14:59;;;;;;;9.50;4.72;;;;;;;-2.77;67.37;99215.81;2265830;78;21313;-87
2021/03/20 02:18:00;;;;;;;8.60;4.30;;;;;;;-2.74;67.48;99218.20;2265506;79;21305;-87
2021/03/20 02:21:02;;;;;;;4.25;3.52;;;;;;;-2.70;67.16;99219.25;2265867;79;21135;-89
2021/03/20 02:24:03;;;;;;;7.72;4.70;;;;;;;-2.67;66.84;99227.22;2265172;79;21570;-89
2021/03/20 02:27:05;;;;;;;7.97;4.85;;;;;;;-2.65;67.04;99224.11;2267565;78;21273;-84
2021/03/20 02:30:06;;;;;;;9.40;4.80;;;;;;;-2.65;66.83;99223.69;2268205;78;21269;-85
2021/03/20 02:33:08;;;;;;;9.68;4.30;;;;;;;-2.62;67.05;99226.06;2268226;78;21131;-85
2021/03/20 02:36:10;;;;;;;10.78;4.10;;;;;;;-2.60;65.95;99231.11;2265792;79;21590;-87
2021/03/20 02:39:11;;;;;;;8.48;4.22;;;;;;;-2.57;66.17;99229.19;2262689;78;21286;-87
2021/03/20 02:42:13;;;;;;;12.28;4.58;;;;;;;-2.55;66.24;99223.17;2262617;79;21753;-88
2021/03/20 02:45:15;;;;;;;6.35;3.55;;;;;;;-2.54;65.57;99232.52;2262735;78;21155;-86
2021/03/20 02:48:16;;;;;;;8.65;4.45;;;;;;;-2.55;65.27;99231.70;2262546;78;22232;-88
2021/03/20 02:51:18;;;;;;;9.15;5.00;;;;;;;-2.53;65.82;99239.30;2262645;79;21691;-88
2021/03/20 02:54:19;;;;;;;8.13;4.03;;;;;;;-2.50;65.61;99236.09;2262593;79;21262;-88
2021/03/20 02:57:21;;;;;;;9.60;4.72;;;;;;;-2.45;65.56;99242.27;2262525;78;21135;-87
2021/03/20 03:00:23;;;;;;;16.77;7.12;;;;;;;-2.43;65.94;99238.70;2262540;79;21182;-87
2021/03/20 03:03:24;;;;;;;12.07;5.47;;;;;;;-2.38;65.88;99243.56;2262632;78;21332;-87
2021/03/20 03:06:26;;;;;;;11.08;6.83;;;;;;;-2.36;65.44;99251.56;2262649;79;21721;-88
2021/03/20 03:09:28;;;;;;;13.32;6.53;;;;;;;-2.32;65.93;99256.05;2262507;78;21270;-87
2021/03/20 03:12:29;;;;;;;13.13;6.78;;;;;;;-2.34;65.82;99257.42;2262597;78;21309;-88
2021/03/20 03:15:31;;;;;;;13.88;6.70;;;;;;;-2.35;65.92;99255.78;2262338;79;21318;-88
2021/03/20 03:18:32;;;;;;;16.75;6.87;;;;;;;-2.33;65.47;99258.25;2263245;78;21167;-87
2021/03/20 03:21:34;;;;;;;10.28;5.90;;;;;;;-2.37;65.50;99261.91;2262857;79;21138;-87
2021/03/20 03:24:35;;;;;;;16.80;7.90;;;;;;;-2.37;65.57;99272.17;2262815;78;21288;-89
2021/03/20 03:27:37;;;;;;;18.52;8.70;;;;;;;-2.40;65.14;99259.50;2263097;78;21305;-90
2021/03/20 03:30:38;;;;;;;17.57;7.53;;;;;;;-2.42;64.94;99276.71;2262903;79;21305;-87
2021/03/20 03:33:40;;;;;;;18.12;9.00;;;;;;;-2.49;65.11;99264.67;2262507;78;21317;-89
2021/03/20 03:36:42;;;;;;;17.65;7.72;;;;;;;-2.50;65.29;99272.45;2261876;78;21281;-88
2021/03/20 03:39:44;;;;;;;20.30;9.08;;;;;;;-2.53;64.72;99272.63;2258611;79;21698;-89
2021/03/20 03:42:45;;;;;;;15.60;7.60;;;;;;;-2.62;64.93;99275.24;2258198;79;21134;-90
2021/03/20 03:45:47;;;;;;;13.30;6.75;;;;;;;-2.67;65.05;99281.88;2258425;79;21769;-89
2021/03/20 03:48:48;;;;;;;8.85;4.55;;;;;;;-2.71;64.90;99277.84;2258336;79;21428;-88
2021/03/20 03:51:50;;;;;;;12.25;6.55;;;;;;;-2.79;64.70;99274.86;2258535;79;21611;-90
2021/03/20 03:54:52;;;;;;;9.05;5.22;;;;;;;-2.90;64.78;99274.16;2258374;79;21170;-91
2021/03/20 03:57:53;;;;;;;12.58;6.05;;;;;;;-3.01;64.83;99274.36;2258578;79;21297;-89
2021/03/20 04:00:55;;;;;;;11.10;5.65;;;;;;;-3.11;64.70;99277.00;2258552;79;21171;-89
2021/03/20 04:03:56;;;;;;;15.65;6.95;;;;;;;-3.22;64.65;99286.52;2258349;79;21143;-89
2021/03/20 04:06:58;;;;;;;16.17;7.67;;;;;;;-3.28;64.82;99290.70;2258748;79;21267;-88
2021/03/20 04:09:59;;;;;;;11.83;6.75;;;;;;;-3.35;64.88;99307.28;2258243;79;21167;-89
2021/03/20 04:13:01;;;;;;;14.75;7.78;;;;;;;-3.46;64.71;99295.85;2258343;79;21282;-88
2021/03/20 04:16:02;;;;;;;10.85;5.78;;;;;;;-3.55;64.77;99301.43;2258391;79;21628;-89
2021/03/20 04:19:04;;;;;;;14.93;6.58;;;;;;;-3.64;64.96;99305.73;2258435;79;21702;-88
2021/03/20 04:22:06;;;;;;;14.78;7.00;;;;;;;-3.77;65.08;99313.62;2258298;79;21163;-89
2021/03/20 04:25:07;;;;;;;16.77;5.83;;;;;;;-3.84;65.46;99312.25;2258364;79;21313;-89
2021/03/20 04:28:09;;;;;;;18.90;7.05;;;;;;;-3.92;65.60;99321.61;2258442;79;21306;-89
2021/03/20 04:31:10;;;;;;;17.80;7.22;;;;;;;-4.03;65.95;99319.53;2259215;79;21289;-90
2021/03/20 04:34:12;;;;;;;17.17;8.05;;;;;;;-4.12;66.18;99326.81;2258430;79;21273;-90
2021/03/20 04:37:13;;;;;;;16.02;6.65;;;;;;;-4.19;66.55;99330.14;2258266;79;21163;-89
2021/03/20 04:40:15;;;;;;;8.53;5.00;;;;;;;-4.28;66.93;99333.58;2258249;79;21155;-88
2021/03/20 04:43:17;;;;;;;13.72;6.20;;;;;;;-4.37;67.60;99330.99;2258340;79;21292;-89
2021/03/20 04:46:18;;;;;;;16.25;7.35;;;;;;;-4.44;67.83;99334.73;2258302;79;22287;-90
2021/03/20 04:49:20;;;;;;;18.50;7.55;;;;;;;-4.51;67.65;99335.90;2258460;79;21265;-88
2021/03/20 04:52:21;;;;;;;17.57;7.47;;;;;;;-4.52;68.27;99338.08;2226276;79;21309;-88
2021/03/20 04:55:23;;;;;;;12.63;7.25;;;;;;;-4.55;68.24;99340.78;2258648;79;21330;-89
2021/03/20 04:58:24;;;;;;;14.95;7.92;;;;;;;-4.61;68.35;99338.87;2258303;79;21260;-89
2021/03/20 05:01:26;;;;;;;16.93;8.85;;;;;;;-4.64;68.64;99341.58;2258219;79;21125;-89
2021/03/20 05:04:28;;;;;;;16.77;7.55;;;;;;;-4.61;68.69;99336.31;2260202;79;21246;-84
2021/03/20 05:07:29;;;;;;;13.83;8.45;;;;;;;-4.58;68.80;99348.13;2260696;79;21281;-86
2021/03/20 05:10:31;;;;;;;24.32;12.07;;;;;;;-4.54;69.11;99347.55;2260091;79;21306;-91
2021/03/20 05:13:33;;;;;;;29.30;12.18;;;;;;;-4.42;68.92;99350.81;2258616;79;21170;-90
2021/03/20 05:16:34;;;;;;;60.88;20.70;;;;;;;-4.29;68.98;99354.48;2258254;79;21634;-86
2021/03/20 05:19:36;;;;;;;60.92;20.97;;;;;;;-4.19;68.86;99363.84;2258775;79;21178;-93
2021/03/20 05:22:38;;;;;;;54.38;17.92;;;;;;;-4.12;68.75;99371.13;2258745;79;21262;-92
2021/03/20 05:25:39;;;;;;;41.50;13.50;;;;;;;-4.08;69.15;99366.27;2260611;79;21254;-84
2021/03/20 05:28:41;;;;;;;31.30;10.40;;;;;;;-4.05;69.07;99372.51;2262313;79;21285;-85
2021/03/20 05:31:42;;;;;;;32.05;11.28;;;;;;;-4.03;69.17;99379.66;2260821;79;21262;-88
2021/03/20 05:34:44;;;;;;;16.27;7.78;;;;;;;-3.96;68.98;99376.36;2258101;79;21111;-85
2021/03/20 05:37:45;;;;;;;18.87;9.23;;;;;;;-3.90;68.92;99372.70;2260655;79;21706;-87
2021/03/20 05:40:47;;;;;;;13.80;7.72;;;;;;;-3.87;69.03;99381.50;2265337;78;21146;-92
2021/03/20 05:43:49;;;;;;;13.98;7.40;;;;;;;-3.83;69.02;99384.31;2265660;78;21309;-87
2021/03/20 05:46:50;;;;;;;17.95;8.58;;;;;;;-3.75;68.87;99389.86;2265876;78;21281;-85
2021/03/20 05:49:52;;;;;;;16.17;8.50;;;;;;;-3.73;69.18;99390.19;2265044;78;21240;-86
2021/03/20 05:52:53;;;;;;;16.97;8.90;;;;;;;-3.70;69.06;99399.45;2265199;79;21126;-87
2021/03/20 05:55:55;;;;;;;13.88;7.03;;;;;;;-3.68;68.95;99398.91;2265346;78;21139;-89
2021/03/20 05:59:00;;;;;;;17.55;10.18;;;;;;;-3.61;69.23;99396.44;2265375;78;21575;-89
2021/03/20 06:02:01;;;;;;;15.78;7.30;;;;;;;-3.58;68.91;99403.14;2265044;78;21300;-87
2021/03/20 06:05:05;;;;;;;16.70;8.63;;;;;;;-3.54;68.98;99395.25;2265166;78;21127;-88
2021/03/20 06:08:07;;;;;;;12.20;6.25;;;;;;;-3.42;68.84;99401.95;2265353;78;21162;-86
2021/03/20 06:11:08;;;;;;;13.72;7.03;;;;;;;-3.41;68.45;99408.27;2265154;79;21879;-88
2021/03/20 06:14:13;;;;;;;10.50;6.60;;;;;;;-3.42;68.51;99418.14;2265206;79;21631;-87
2021/03/20 06:17:14;;;;;;;10.13;6.90;;;;;;;-3.39;68.60;99405.18;2265233;78;21124;-86
2021/03/20 06:20:16;;;;;;;8.33;6.22;;;;;;;-3.32;68.23;99420.63;2265721;78;21269;-88
2021/03/20 06:23:17;;;;;;;12.37;6.50;;;;;;;-3.23;67.92;99417.62;2265166;79;21124;-84
2021/03/20 06:26:19;;;;;;;10.00;5.53;;;;;;;-3.15;67.96;99419.80;2265341;78;21111;-88
2021/03/20 06:29:21;;;;;;;17.92;8.40;;;;;;;-3.07;67.32;99418.14;2266688;78;21285;-85
2021/03/20 06:32:23;;;;;;;11.10;7.22;;;;;;;-2.99;67.44;99412.19;2265279;79;21190;-84
2021/03/20 06:35:24;;;;;;;13.72;5.78;;;;;;;-2.86;67.05;99423.01;2265198;78;21154;-87
2021/03/20 06:38:26;;;;;;;16.17;7.22;;;;;;;-2.75;66.94;99421.63;2261570;78;21595;-87
2021/03/20 06:41:28;;;;;;;12.10;6.67;;;;;;;-2.66;66.50;99417.31;2257889;79;21103;-88
2021/03/20 06:44:29;;;;;;;9.05;5.25;;;;;;;-2.56;66.28;99422.36;2257881;79;21618;-87
2021/03/20 06:47:31;;;;;;;16.27;6.40;;;;;;;-2.46;64.42;99432.97;2258038;79;21187;-88
2021/03/20 06:50:33;;;;;;;13.05;5.67;;;;;;;-2.45;65.62;99430.77;2258103;79;21756;-88
2021/03/20 06:53:34;;;;;;;12.78;5.37;;;;;;;-2.43;64.78;99437.92;2258485;79;21194;-88
2021/03/20 06:56:36;;;;;;;14.75;6.95;;;;;;;-2.33;65.19;99435.25;2258561;79;21131;-89
2021/03/20 06:59:37;;;;;;;15.58;6.30;;;;;;;-2.24;64.06;99439.06;2258381;79;21100;-87
2021/03/20 07:02:39;;;;;;;17.50;6.90;;;;;;;-2.15;63.78;99437.30;2258232;79;21301;-89
2021/03/20 07:05:41;;;;;;;9.78;5.87;;;;;;;-2.10;64.12;99441.28;2258295;79;21305;-87
2021/03/20 07:08:42;;;;;;;13.72;8.60;;;;;;;-2.04;63.67;99443.50;2258502;79;21320;-92
2021/03/20 07:11:44;;;;;;;8.13;5.05;;;;;;;-1.94;63.71;99441.27;2258618;79;21280;-87
2021/03/20 07:14:46;;;;;;;14.65;6.83;;;;;;;-1.86;62.56;99447.27;2258735;79;21686;-91
2021/03/20 07:17:48;;;;;;;11.43;5.78;;;;;;;-1.88;62.22;99449.93;2258403;79;21123;-91
2021/03/20 07:20:50;;;;;;;10.48;5.20;;;;;;;-1.83;62.71;99453.09;2258303;79;21281;-89
2021/03/20 07:23:52;;;;;;;9.70;5.53;;;;;;;-1.80;60.45;99458.50;2258220;79;21104;-91
2021/03/20 07:26:54;;;;;;;10.00;5.20;;;;;;;-1.79;61.52;99469.97;2258636;79;21112;-91
2021/03/20 07:29:55;;;;;;;10.72;5.67;;;;;;;-1.80;60.48;99464.46;2258595;79;21710;-90
2021/03/20 07:32:57;;;;;;;13.25;5.67;;;;;;;-1.76;61.45;99458.70;2227126;79;21704;-90
2021/03/20 07:35:59;;;;;;;20.95;12.40;;;;;;;-1.67;60.71;99467.64;2258783;79;21745;-90
2021/03/20 07:39:00;;;;;;;10.30;5.15;;;;;;;-1.59;60.97;99468.05;2261568;79;21301;-90
2021/03/20 07:42:06;;;;;;;10.70;5.35;;;;;;;-1.53;60.36;99470.29;2262860;78;21108;-92
2021/03/20 07:45:09;;;;;;;7.12;3.75;;;;;;;-1.48;60.88;99469.09;2235746;79;21258;-89
2021/03/20 07:48:11;;;;;;;11.10;5.67;;;;;;;-1.36;59.48;99484.77;2263571;78;21167;-90
2021/03/20 07:51:12;;;;;;;10.28;5.65;;;;;;;-1.30;59.46;99474.13;2262983;78;22177;-91
2021/03/20 07:54:14;;;;;;;12.28;4.85;;;;;;;-1.22;59.42;99479.20;2262835;78;21289;-90
2021/03/20 07:57:16;;;;;;;6.50;4.58;;;;;;;-1.12;58.10;99479.52;2263013;78;21270;-91
2021/03/20 08:00:17;;;;;;;5.47;4.03;;;;;;;-0.92;58.52;99483.51;2263066;78;21587;-91
2021/03/20 08:03:19;;;;;;;5.30;3.92;;;;;;;-0.82;55.95;99491.09;2264668;77;21135;-90
2021/03/20 08:06:21;;;;;;;8.88;5.05;;;;;;;-0.93;55.99;99487.83;2267949;78;21199;-94
2021/03/20 08:09:23;;;;;;;7.70;4.45;;;;;;;-0.86;56.41;99494.28;2265716;78;21273;-92
2021/03/20 08:12:33;;;;;;;7.87;4.15;;;;;;;-0.81;57.14;99485.48;2265439;78;21318;-91
2021/03/20 08:15:40;;;;;;;7.53;4.95;;;;;;;-0.82;56.60;99488.95;2261091;78;21322;-90
2021/03/20 08:18:46;;;;;;;11.88;4.62;;;;;;;-0.68;57.25;99483.84;2262433;79;21623;-88
2021/03/20 08:21:48;;;;;;;8.55;5.62;;;;;;;-0.47;56.21;99484.31;2262753;78;21138;-91
2021/03/20 08:24:55;;;;;;;8.78;4.33;;;;;;;-0.37;54.80;99482.84;2263194;79;21134;-86
2021/03/20 08:32:19;;;;;;;;;;;;;;;;;;;;;
2021/03/20 08:35:16;;;;;;;6.60;4.00;;;;;;;-0.23;53.64;99489.29;2106538;84;21198;-93
2021/03/20 08:38:18;;;;;;;8.55;4.22;;;;;;;-0.11;52.15;99500.58;2106739;84;21178;-92
2021/03/20 08:41:20;;;;;;;4.65;4.10;;;;;;;-0.09;53.44;99489.72;2100446;85;21162;-91
2021/03/20 08:44:22;;;;;;;7.33;3.35;;;;;;;-0.04;54.12;99495.44;2100453;85;21166;-92
2021/03/20 08:47:26;;;;;;;5.53;3.50;;;;;;;0.06;52.12;99494.41;2099357;85;21178;-90
2021/03/20 08:50:27;;;;;;;6.95;3.45;;;;;;;0.19;52.10;99505.63;2099744;85;21158;-89
2021/03/20 08:53:29;;;;;;;4.28;3.15;;;;;;;0.15;49.37;99506.26;2099844;85;21233;-88
2021/03/20 08:56:31;;;;;;;5.47;3.45;;;;;;;-0.03;49.55;99504.34;2099522;85;21238;-89
2021/03/20 08:59:32;;;;;;;4.70;3.65;;;;;;;-0.15;49.40;99509.42;2099473;85;21716;-88
2021/03/20 09:02:34;;;;;;;6.22;3.75;;;;;;;-0.11;49.95;99510.88;2099980;85;21146;-90
2021/03/20 09:05:36;;;;;;;7.03;4.15;;;;;;;-0.07;48.44;99501.61;2099725;85;21237;-90
2021/03/20 09:08:40;;;;;;;6.75;2.95;;;;;;;0.22;49.86;99506.72;2200141;79;21146;-90
2021/03/20 09:11:42;;;;;;;4.50;3.00;;;;;;;0.33;48.21;99511.20;2258153;79;21261;-88
2021/03/20 09:14:46;;;;;;;4.55;2.98;;;;;;;0.26;45.38;99522.34;2258224;79;21583;-87
2021/03/20 09:17:48;;;;;;;3.92;2.98;;;;;;;0.28;48.14;99530.82;2258154;79;21272;-89
2021/03/20 09:20:50;;;;;;;8.45;5.00;;;;;;;0.24;47.96;99524.19;2257945;79;21135;-89
2021/03/20 09:23:51;;;;;;;5.92;4.33;;;;;;;0.32;48.17;99525.00;2258041;79;21270;-89
2021/03/20 09:26:53;;;;;;;8.00;3.30;;;;;;;0.55;47.46;99525.70;2257963;79;21155;-89
2021/03/20 09:29:54;;;;;;;5.65;2.70;;;;;;;0.89;47.08;99517.92;2258021;79;21309;-89
2021/03/20 09:32:57;;;;;;;2.15;1.98;;;;;;;0.96;42.89;99524.80;2257852;79;21321;-88
2021/03/20 09:35:59;;;;;;;8.35;3.27;;;;;;;0.77;41.59;99536.77;2258511;79;21293;-89
2021/03/20 09:39:00;;;;;;;22.25;8.53;;;;;;;0.42;42.13;99535.93;2260706;79;21245;-89
2021/03/20 09:42:02;;;;;;;9.50;5.40;;;;;;;0.20;43.64;99530.47;2265110;79;21159;-88
2021/03/20 09:45:04;;;;;;;4.08;2.45;;;;;;;0.17;43.45;99535.78;2265337;78;21272;-89
2021/03/20 09:48:06;;;;;;;3.92;3.12;;;;;;;0.41;44.31;99535.56;2265198;78;21127;-90
2021/03/20 09:51:07;;;;;;;5.40;3.55;;;;;;;0.64;44.90;99543.16;2264902;78;21142;-89
2021/03/20 09:54:10;;;;;;;5.58;4.00;;;;;;;0.83;43.98;99541.07;2264797;79;21162;-89
2021/03/20 09:57:18;;;;;;;5.42;3.22;;;;;;;1.06;43.80;99532.30;2264932;79;21277;-89
2021/03/20 10:00:15;;;;;;;4.67;3.37;;;;;;;1.21;43.41;99533.90;2264373;79;21167;-87
2021/03/20 10:03:17;;;;;;;6.08;4.00;;;;;;;1.19;42.06;99547.80;2265205;79;21139;-89
2021/03/20 10:06:18;;;;;;;6.03;3.58;;;;;;;1.06;42.84;99554.23;2265126;78;21138;-89
2021/03/20 10:09:20;;;;;;;5.45;3.50;;;;;;;0.86;42.03;99546.48;2265317;78;21155;-88
2021/03/20 10:12:22;;;;;;;7.00;3.77;;;;;;;0.75;43.20;99547.17;2265312;78;21254;-90
2021/03/20 10:15:23;;;;;;;5.00;4.08;;;;;;;0.79;43.92;99547.80;2265345;79;21602;-89
2021/03/20 10:18:25;;;;;;;5.95;4.15;;;;;;;0.94;44.40;99542.14;2265141;79;21167;-89
2021/03/20 10:21:27;;;;;;;5.75;2.83;;;;;;;1.29;43.50;99546.30;2265950;79;21309;-89
2021/03/20 10:24:28;;;;;;;4.55;3.50;;;;;;;1.64;42.30;99547.34;2265324;78;21186;-89
2021/03/20 10:27:30;;;;;;;3.05;2.55;;;;;;;1.78;43.05;99552.06;2265545;78;21151;-89
2021/03/20 10:30:32;;;;;;;4.90;2.75;;;;;;;1.80;40.46;99560.53;2265433;78;21159;-88
2021/03/20 10:33:33;;;;;;;5.75;3.62;;;;;;;1.69;40.81;99549.17;2265125;78;21171;-89
2021/03/20 10:36:37;;;;;;;4.00;3.10;;;;;;;1.60;39.00;99553.66;2264659;79;22530;-89
2021/03/20 10:39:39;;;;;;;5.28;3.10;;;;;;;1.53;40.53;99550.29;2265181;78;21174;-88
2021/03/20 10:42:41;;;;;;;6.35;3.87;;;;;;;1.41;39.93;99560.50;2265571;78;21139;-89
2021/03/20 10:45:42;;;;;;;7.45;3.87;;;;;;;1.52;41.86;99560.26;2265456;78;21171;-90
2021/03/20 10:48:44;;;;;;;6.28;3.10;;;;;;;1.87;41.35;99556.61;2265202;78;21595;-90
2021/03/20 10:51:46;;;;;;;4.87;3.27;;;;;;;2.36;41.52;99554.52;2264717;78;21137;-90
2021/03/20 10:54:47;;;;;;;6.53;3.42;;;;;;;2.61;40.40;99557.05;2264904;78;21580;-88
2021/03/20 10:57:49;;;;;;;5.58;2.95;;;;;;;2.67;38.53;99556.63;2265200;78;21293;-90
2021/03/20 11:00:51;;;;;;;6.22;3.58;;;;;;;2.41;36.38;99558.45;2265149;78;21311;-87
2021/03/20 11:03:52;;;;;;;11.43;6.15;;;;;;;2.28;38.29;99542.95;2265685;79;21120;-88
2021/03/20 11:06:54;;;;;;;4.87;3.37;;;;;;;2.15;36.54;99552.97;2265368;79;21189;-87
2021/03/20 11:09:55;;;;;;;4.05;3.30;;;;;;;1.99;37.04;99543.67;2265797;78;21293;-90
2021/03/20 12:56:38;;;;;;;4.67;3.92;;;;;;;1.25;36.37;99504.84;2279239;78;22336;-81
2021/03/20 12:59:40;;;;;;;6.22;3.83;;;;;;;1.28;35.42;99513.66;2235785;80;21609;-81
2021/03/20 13:02:42;;;;;;;7.17;4.83;;;;;;;1.36;34.77;99525.59;2236040;79;21312;-81
2021/03/20 13:05:44;;;;;;;9.13;5.78;;;;;;;1.51;36.15;99510.39;2235735;80;21711;-80
2021/03/20 13:08:45;;;;;;;7.65;4.95;;;;;;;1.70;35.42;99512.09;2235614;79;21304;-81
2021/03/20 13:11:47;;;;;;;6.53;4.37;;;;;;;1.84;35.86;99509.88;2236037;79;21324;-79
2021/03/20 13:14:48;;;;;;;6.90;4.87;;;;;;;1.85;35.26;99521.03;2235527;80;21178;-79
2021/03/20 13:17:50;;;;;;;5.53;4.10;;;;;;;1.75;35.34;99514.84;2202423;80;21272;-80
2021/03/20 13:20:52;;;;;;;7.65;4.72;;;;;;;1.60;35.27;99516.22;2235772;79;21143;-79
2021/03/20 13:23:53;;;;;;;7.00;5.05;;;;;;;1.56;36.03;99503.64;2235814;80;21174;-79
2021/03/20 13:26:55;;;;;;;8.55;5.55;;;;;;;1.53;35.55;99506.41;2236009;80;21316;-81
2021/03/20 13:29:58;;;;;;;6.45;4.25;;;;;;;1.52;35.67;99503.47;2235789;80;21296;-80
2021/03/20 13:32:59;;;;;;;7.70;4.70;;;;;;;1.49;35.54;99496.77;2235749;79;21304;-80
2021/03/20 13:36:01;;;;;;;9.03;6.00;;;;;;;1.42;35.94;99504.55;2202887;80;21771;-80
2021/03/20 13:39:03;;;;;;;12.35;6.37;;;;;;;1.41;36.76;99499.86;2235751;80;21609;-81
2021/03/20 13:42:04;;;;;;;7.17;5.20;;;;;;;1.41;36.32;99497.28;2236165;80;21308;-80
2021/03/20 13:45:06;;;;;;;7.33;5.53;;;;;;;1.42;36.53;99486.48;2235769;80;21122;-80
2021/03/20 13:48:08;;;;;;;7.10;5.42;;;;;;;1.40;36.09;99489.17;2236143;79;21289;-81
2021/03/20 13:51:10;;;;;;;9.08;6.10;;;;;;;1.38;35.99;99497.95;2235787;80;21301;-80
2021/03/20 13:54:11;;;;;;;12.58;6.83;;;;;;;1.41;36.44;99484.84;2233678;79;21371;-80
2021/03/20 13:57:13;;;;;;;6.03;4.37;;;;;;;1.50;36.04;99481.64;2218500;80;21151;-80
2021/03/20 14:00:15;;;;;;;8.88;5.55;;;;;;;1.55;34.77;99478.27;2220888;80;21240;-79
2021/03/20 14:03:17;;;;;;;7.75;5.40;;;;;;;1.71;36.31;99476.30;2223541;80;21297;-80
2021/03/20 14:06:18;;;;;;;9.48;5.58;;;;;;;1.86;35.32;99476.19;2218865;80;21162;-81
2021/03/20 14:09:20;;;;;;;9.53;5.25;;;;;;;1.86;36.04;99492.98;2218059;80;21738;-80
2021/03/20 14:12:22;;;;;;;6.85;5.12;;;;;;;1.86;35.80;99495.56;2218058;80;21281;-80
2021/03/20 14:15:23;;;;;;;6.95;4.97;;;;;;;1.85;36.22;99496.50;2217751;80;21290;-80
2021/03/20 14:18:25;;;;;;;16.23;5.40;;;;;;;1.87;35.66;99492.87;2218048;80;21743;-81
2021/03/20 14:21:27;;;;;;;9.85;5.12;;;;;;;1.74;35.38;99493.36;2220252;80;21130;-81
2021/03/20 14:24:29;;;;;;;9.43;4.75;;;;;;;1.56;36.07;99496.72;2222562;80;21273;-80
2021/03/20 14:27:30;;;;;;;7.35;5.15;;;;;;;1.51;36.40;99500.53;2218435;80;21729;-80
2021/03/20 14:30:32;;;;;;;7.33;4.65;;;;;;;1.51;36.50;99501.83;2218033;80;21270;-81
2021/03/20 14:33:34;;;;;;;6.65;4.33;;;;;;;1.47;36.42;99493.47;2217951;80;21135;-80
2021/03/20 14:36:36;;;;;;;9.48;6.40;;;;;;;1.39;36.16;99495.73;2217863;80;21151;-80
2021/03/20 14:39:37;;;;;;;7.08;4.95;;;;;;;1.34;36.82;99494.73;2218182;80;21577;-80
2021/03/20 14:42:39;;;;;;;5.97;4.25;;;;;;;1.29;36.87;99490.36;2217925;80;21601;-79
2021/03/20 14:45:40;;;;;;;5.72;4.20;;;;;;;1.34;36.91;99497.78;2217951;80;21814;-80
2021/03/20 14:48:42;;;;;;;9.23;5.67;;;;;;;1.37;36.23;99488.53;2217866;80;21151;-81
2021/03/20 14:51:44;;;;;;;7.67;5.78;;;;;;;1.39;35.88;99490.11;2217970;80;21155;-81
2021/03/20 14:54:45;;;;;;;8.85;5.95;;;;;;;1.36;35.19;99481.73;2218480;80;21309;-79
2021/03/20 14:57:47;;;;;;;11.57;7.20;;;;;;;1.32;35.16;99472.55;2221569;80;21293;-79
2021/03/20 15:00:49;;;;;;;10.82;5.95;;;;;;;1.21;36.81;99474.56;2221683;80;21341;-78
2021/03/20 15:03:51;;;;;;;11.40;6.83;;;;;;;0.99;37.08;99480.28;2221471;80;21316;-78
2021/03/20 15:06:53;;;;;;;9.43;6.65;;;;;;;0.77;37.91;99483.91;2221670;80;21320;-78
2021/03/20 15:09:54;;;;;;;12.40;6.37;;;;;;;0.62;38.14;99481.02;2222085;80;21208;-79
2021/03/20 15:12:56;;;;;;;11.85;7.65;;;;;;;0.52;38.05;99491.08;2221667;80;21290;-79
2021/03/20 15:15:58;;;;;;;8.68;6.30;;;;;;;0.39;38.61;99473.47;2221839;80;21120;-80
2021/03/20 15:19:00;;;;;;;14.53;7.33;;;;;;;0.24;38.43;99477.36;2221369;80;21270;-79
2021/03/20 15:22:01;;;;;;;13.50;6.90;;;;;;;0.12;38.67;99483.28;2221435;80;21131;-79
2021/03/20 15:25:03;;;;;;;17.32;8.08;;;;;;;0.00;38.93;99475.03;2221495;80;21609;-79
2021/03/20 15:28:05;;;;;;;14.55;7.37;;;;;;;-0.10;38.98;99474.73;2221525;80;21780;-78
2021/03/20 15:31:06;;;;;;;8.40;5.12;;;;;;;-0.19;39.01;99478.34;2221405;80;21149;-79
2021/03/20 15:34:08;;;;;;;18.62;9.80;;;;;;;-0.29;39.21;99475.49;2221645;80;21278;-78
2021/03/20 15:37:09;;;;;;;21.05;10.60;;;;;;;-0.40;39.66;99473.56;2221579;80;21282;-79
2021/03/20 15:40:11;;;;;;;20.97;10.72;;;;;;;-0.39;40.04;99461.06;2221543;80;21741;-81
2021/03/20 15:43:13;;;;;;;28.67;12.58;;;;;;;-0.36;40.06;99465.22;2221585;80;21308;-80
2021/03/20 15:46:15;;;;;;;19.85;8.58;;;;;;;-0.35;40.00;99459.16;2221897;80;21341;-78
2021/03/20 15:49:17;;;;;;;19.30;10.72;;;;;;;-0.36;39.63;99452.36;2221708;80;21325;-80
2021/03/20 15:52:19;;;;;;;14.80;7.80;;;;;;;-0.37;39.39;99455.36;2221815;80;21308;-80
2021/03/20 15:55:21;;;;;;;19.00;10.40;;;;;;;-0.39;38.90;99452.06;2221508;80;21717;-79
2021/03/20 15:58:22;;;;;;;18.15;9.28;;;;;;;-0.45;39.03;99455.48;2221989;80;21154;-80
2021/03/20 16:01:24;;;;;;;10.80;6.58;;;;;;;-0.53;39.18;99444.36;2221574;80;21257;-79
2021/03/20 16:04:25;;;;;;;15.25;8.48;;;;;;;-0.61;39.47;99449.95;2221587;80;21285;-80